Time;durP1;ratioP1;P1;durP2;ratioP2;P2;SDS_P1;SDS_P2;PMS_P1;PMS_P2;Temp;Humidity;BMP_temperature;BMP_pressure;BME280_temperature;BME280_humidity;BME280_pressure;Samples;Min_cycle;Max_cycle;Signal;HPM_P1;HPM_P2
2023/06/05 00:01:48;;;;;;;3.53;2.17;;;17.50;38.00;;;19.30;31.65;97695.53;5060008;28;20052;-54
2023/06/05 00:04:15;;;;;;;8.18;2.90;;;17.50;37.60;;;19.27;31.79;97694.09;5061132;28;20408;-53
2023/06/05 00:06:43;;;;;;;7.05;2.70;;;17.50;37.50;;;19.24;31.78;97695.34;5064128;28;20044;-52
2023/06/05 00:09:13;;;;;;;4.53;2.20;;;17.40;37.60;;;19.22;31.82;97688.50;5062915;28;20040;-54
2023/06/05 00:11:41;;;;;;;4.60;2.42;;;17.40;37.60;;;19.20;31.83;97688.72;5043045;28;20060;-55
2023/06/05 00:14:08;;;;;;;4.05;2.60;;;17.40;37.70;;;19.19;31.89;97697.03;5060932;28;20045;-50
2023/06/05 00:16:36;;;;;;;3.45;2.00;;;17.30;37.80;;;19.16;32.13;97695.59;5062825;28;20041;-52
2023/06/05 00:19:04;;;;;;;3.25;2.33;;;17.30;37.90;;;19.16;31.99;97695.59;5064261;28;20515;-53
2023/06/05 00:21:31;;;;;;;2.65;2.00;;;17.30;37.90;;;19.12;32.00;97699.78;5061943;28;20036;-51
2023/06/05 00:23:59;;;;;;;5.53;2.10;;;17.30;38.00;;;19.10;32.25;97696.47;5059022;28;20052;-52
2023/06/05 00:26:26;;;;;;;5.80;2.15;;;17.30;38.30;;;19.07;32.10;97696.88;5061182;28;20041;-53
2023/06/05 00:28:55;;;;;;;3.15;2.55;;;17.30;38.40;;;19.03;32.19;97701.03;5063863;28;20033;-53
2023/06/05 00:31:23;;;;;;;5.20;2.08;;;17.20;38.20;;;19.00;32.38;97696.06;5063161;28;20070;-54
2023/06/05 00:33:51;;;;;;;3.88;2.28;;;17.10;38.50;;;18.96;32.49;97692.13;5059039;28;20067;-51
2023/06/05 00:36:22;;;;;;;3.75;2.10;;;17.10;38.70;;;18.93;32.53;97690.72;5056083;28;20049;-54
2023/06/05 00:38:50;;;;;;;3.90;2.17;;;17.10;38.60;;;18.90;32.50;97693.81;5063141;28;20052;-51
2023/06/05 00:41:18;;;;;;;2.83;1.95;;;17.10;38.70;;;18.85;32.58;97691.78;5061959;28;20052;-53
2023/06/05 00:43:46;;;;;;;2.80;2.03;;;17.00;38.90;;;18.81;32.84;97684.34;5052111;28;20045;-53
2023/06/05 00:46:15;;;;;;;5.80;3.13;;;16.90;39.10;;;18.78;32.90;97688.22;5058167;28;20428;-55
2023/06/05 00:48:46;;;;;;;5.13;2.60;;;16.90;39.40;;;18.74;32.77;97684.31;5061276;28;20051;-51
2023/06/05 00:51:15;;;;;;;3.42;2.30;;;16.80;39.20;;;18.70;32.87;97691.16;5061815;28;20055;-54
2023/06/05 00:53:46;;;;;;;4.70;2.38;;;16.80;39.40;;;18.66;33.17;97690.75;5058274;28;20401;-53
2023/06/05 00:56:14;;;;;;;3.17;2.13;;;16.80;39.90;;;18.63;33.18;97693.91;5057860;28;20049;-53
2023/06/05 00:58:42;;;;;;;2.75;1.90;;;16.80;39.80;;;18.61;33.26;97687.03;5061226;28;20409;-54
2023/06/05 01:01:11;;;;;;;5.10;2.60;;;16.80;39.90;;;18.58;33.25;97698.25;5044683;28;20428;-54
2023/06/05 01:03:39;;;;;;;2.72;2.03;;;16.70;39.90;;;18.55;33.38;97687.88;5058943;28;20045;-51
2023/06/05 01:06:07;;;;;;;3.85;2.05;;;16.70;40.20;;;18.53;33.47;97690.78;5059518;28;20507;-53
2023/06/05 01:08:39;;;;;;;4.10;1.88;;;16.70;40.00;;;18.52;33.53;97682.94;5061264;28;20509;-53
2023/06/05 01:11:21;;;;;;;3.40;2.50;;;16.70;40.20;;;18.47;33.64;97687.06;5062269;28;20037;-54
2023/06/05 01:14:23;;;;;;;4.05;2.38;;;16.70;41.40;;;18.41;33.56;97687.09;5050599;28;20036;-52
2023/06/05 01:16:55;;;;;;;3.30;2.30;;;16.60;41.70;;;18.44;33.92;97686.69;5043761;28;20045;-53
2023/06/05 01:19:31;;;;;;;3.00;2.28;;;16.60;41.00;;;18.39;33.82;97690.00;5058221;28;20045;-53
2023/06/05 01:21:59;;;;;;;5.20;2.42;;;16.50;41.70;;;18.36;33.93;97692.28;5063020;28;20035;-54
2023/06/05 01:24:27;;;;;;;3.95;1.75;;;16.50;40.90;;;18.33;34.10;97695.41;5060664;28;20056;-51
2023/06/05 01:27:00;;;;;;;4.97;2.60;;;16.50;41.20;;;18.29;34.28;97692.28;5057650;28;20048;-54
2023/06/05 01:29:43;;;;;;;;;;;16.40;41.20;;;18.26;33.93;97695.41;5060239;28;20531;-53
2023/06/05 01:32:21;;;;;;;3.25;2.28;;;16.30;44.10;;;18.24;34.43;97692.94;5062340;28;20293;-54
2023/06/05 01:34:49;;;;;;;3.38;2.05;;;16.20;42.90;;;18.15;34.53;97690.66;5062962;28;20048;-51
2023/06/05 01:37:18;;;;;;;2.92;2.00;;;16.10;42.60;;;18.07;34.57;97695.22;5061436;28;20115;-53
2023/06/05 01:39:48;;;;;;;3.88;2.45;;;16.00;42.40;;;18.02;35.00;97700.38;5058033;28;20504;-52
2023/06/05 01:42:18;;;;;;;3.47;2.30;;;16.00;43.20;;;17.97;35.02;97694.81;5038314;28;20497;-54
2023/06/05 01:44:47;;;;;;;2.67;2.33;;;15.90;43.50;;;17.93;35.27;97698.94;5060106;28;20045;-53
2023/06/05 01:47:15;;;;;;;3.53;2.70;;;15.90;43.20;;;17.86;35.44;97690.03;5060227;28;20412;-53
2023/06/05 01:49:43;;;;;;;3.85;2.45;;;15.80;43.90;;;17.76;35.60;97682.34;5041976;28;20052;-52
2023/06/05 01:52:11;;;;;;;4.95;2.40;;;15.70;44.50;;;17.70;35.81;97688.56;5059162;28;20529;-53
2023/06/05 01:54:39;;;;;;;3.80;2.30;;;15.60;44.70;;;17.66;35.81;97688.13;5059660;28;20420;-53
2023/06/05 01:57:06;;;;;;;3.72;2.60;;;15.60;44.30;;;17.62;35.96;97686.88;5060494;28;20415;-53
2023/06/05 01:59:35;;;;;;;2.95;2.10;;;15.60;44.40;;;17.58;36.21;97688.31;5060054;28;20532;-52
2023/06/05 02:02:03;;;;;;;3.92;2.63;;;15.50;44.80;;;17.55;36.32;97687.91;5057385;28;20504;-51
2023/06/05 02:04:32;;;;;;;3.47;2.40;;;15.50;45.30;;;17.49;36.42;97687.69;5057747;28;20086;-53
2023/06/05 02:07:03;;;;;;;4.22;2.35;;;15.40;45.60;;;17.43;36.72;97682.31;5062003;28;20044;-50
2023/06/05 02:09:34;;;;;;;3.75;2.25;;;15.30;46.00;;;17.38;36.63;97682.06;5061668;28;20041;-51
2023/06/05 02:12:03;;;;;;;3.67;2.60;;;15.30;45.60;;;17.37;36.88;97683.09;5057716;28;20045;-52
2023/06/05 02:14:32;;;;;;;3.20;2.30;;;15.40;46.00;;;17.32;36.77;97686.41;5059494;28;20049;-55
2023/06/05 02:16:59;;;;;;;2.88;2.40;;;15.30;46.10;;;17.29;37.07;97681.41;5060660;28;20052;-54
2023/06/05 02:19:27;;;;;;;2.63;2.30;;;15.20;46.40;;;17.23;37.19;97680.38;5060656;28;20059;-52
2023/06/05 02:21:55;;;;;;;3.47;2.65;;;15.20;46.50;;;17.20;37.32;97679.97;5049493;28;20053;-50
2023/06/05 02:24:24;;;;;;;3.47;2.55;;;15.10;46.70;;;17.17;37.03;97683.88;5053862;28;20501;-50
2023/06/05 02:26:53;;;;;;;3.40;2.47;;;15.10;46.70;;;17.14;37.48;97684.28;5063897;28;20040;-51
2023/06/05 02:29:20;;;;;;;4.45;2.55;;;15.00;47.00;;;17.10;37.32;97683.88;5064766;28;20045;-55
2023/06/05 02:31:48;;;;;;;7.15;2.67;;;15.00;47.10;;;17.08;37.42;97687.78;5061866;28;20072;-51
2023/06/05 02:34:17;;;;;;;4.35;2.63;;;15.00;47.10;;;17.03;37.76;97687.56;5062784;28;20512;-51
2023/06/05 02:36:45;;;;;;;3.15;2.55;;;14.90;47.50;;;16.96;37.90;97687.50;5064162;28;20052;-53
2023/06/05 02:39:13;;;;;;;4.72;2.65;;;14.80;48.10;;;16.92;37.86;97686.25;5063679;28;20048;-53
2023/06/05 02:41:42;;;;;;;3.03;2.30;;;14.70;48.20;;;16.89;38.06;97686.69;5062634;28;20051;-55
2023/06/05 02:44:10;;;;;;;3.38;2.45;;;14.70;48.10;;;16.86;38.28;97689.75;5061002;28;20051;-54
2023/06/05 02:46:39;;;;;;;4.50;2.65;;;14.70;48.30;;;16.83;38.30;97685.63;5061820;28;20048;-54
2023/06/05 02:49:07;;;;;;;4.55;2.75;;;14.70;48.30;;;16.80;38.48;97687.84;5064491;28;20524;-53
2023/06/05 02:51:34;;;;;;;7.30;3.63;;;14.70;48.50;;;16.77;38.47;97683.72;5047388;28;20040;-55
2023/06/05 02:54:03;;;;;;;4.05;2.10;;;14.70;48.60;;;16.75;38.41;97696.53;5060832;28;20044;-53
2023/06/05 02:56:32;;;;;;;5.53;2.47;;;14.70;48.70;;;16.73;38.46;97687.81;5060400;28;20056;-53
2023/06/05 02:59:02;;;;;;;5.82;3.10;;;14.60;48.50;;;16.71;38.59;97687.16;5063495;28;20067;-50
2023/06/05 03:01:34;;;;;;;4.10;2.33;;;14.60;48.70;;;16.69;38.76;97683.84;5064210;28;20511;-53
2023/06/05 03:04:06;;;;;;;3.72;2.60;;;14.60;49.00;;;16.65;38.76;97679.91;5060563;28;20049;-50
2023/06/05 03:06:36;;;;;;;5.40;2.50;;;14.60;49.10;;;16.65;39.13;97682.59;5060415;28;20033;-53
2023/06/05 03:09:07;;;;;;;5.13;3.20;;;14.60;49.50;;;16.62;39.03;97685.69;5064057;28;20041;-54
2023/06/05 03:11:35;;;;;;;6.43;3.65;;;14.50;49.40;;;16.58;38.99;97681.75;5063548;28;20044;-52
2023/06/05 03:14:02;;;;;;;3.80;2.95;;;14.50;49.20;;;16.54;39.13;97682.13;5061649;28;20048;-51
2023/06/05 03:16:41;;;;;;;4.53;2.58;;;14.50;49.40;;;16.53;39.33;97676.94;5059588;28;20044;-53
2023/06/05 03:19:09;;;;;;;3.53;2.25;;;14.50;49.50;;;16.51;39.17;97676.31;5063666;28;20047;-50
2023/06/05 03:21:41;;;;;;;5.32;3.13;;;14.40;49.70;;;16.46;39.46;97678.75;5063348;28;20052;-51
2023/06/05 03:24:15;;;;;;;3.08;2.20;;;14.40;49.80;;;16.44;39.37;97681.66;5060409;28;20037;-53
2023/06/05 03:26:48;;;;;;;4.38;2.17;;;14.40;49.90;;;16.42;39.46;97682.88;5059826;28;20493;-52
2023/06/05 03:29:15;;;;;;;4.05;2.30;;;14.40;49.90;;;16.41;39.44;97678.53;5064129;28;20049;-54
2023/06/05 03:31:44;;;;;;;3.83;2.75;;;14.30;50.00;;;16.38;39.44;97673.56;5062176;28;20052;-55
2023/06/05 03:34:12;;;;;;;4.82;2.85;;;14.40;50.10;;;16.37;39.60;97682.66;5060021;28;20041;-51
2023/06/05 03:36:40;;;;;;;4.40;3.00;;;14.30;50.10;;;16.37;39.76;97679.97;5061840;28;20432;-54
2023/06/05 03:39:11;;;;;;;3.42;2.30;;;14.30;50.30;;;16.36;39.73;97683.66;5061449;28;20040;-54
2023/06/05 03:41:41;;;;;;;4.50;2.60;;;14.30;50.30;;;16.34;39.94;97689.22;5062231;28;20045;-51
2023/06/05 03:44:09;;;;;;;4.00;2.20;;;14.30;50.50;;;16.31;39.65;97684.28;5061272;28;20045;-53
2023/06/05 03:46:37;;;;;;;5.07;2.83;;;14.30;50.40;;;16.33;39.78;97691.09;5039747;28;20068;-52
2023/06/05 03:49:08;;;;;;;3.85;2.75;;;14.40;50.10;;;16.31;39.79;97682.41;5063509;28;20040;-52
2023/06/05 03:51:37;;;;;;;5.90;2.95;;;14.30;50.20;;;16.29;40.16;97689.84;5062859;28;20507;-53
2023/06/05 03:54:05;;;;;;;4.00;2.40;;;14.30;50.30;;;16.30;40.08;97698.72;5043810;28;20076;-50
2023/06/05 03:56:39;;;;;;;5.97;2.33;;;14.40;50.30;;;16.32;40.00;97696.66;5060901;28;20041;-53
2023/06/05 03:59:16;;;;;;;4.40;2.60;;;14.40;50.00;;;16.33;40.10;97693.78;5059525;28;20040;-53
2023/06/05 04:01:44;;;;;;;4.97;2.40;;;14.50;50.10;;;16.36;40.21;97699.78;5062036;28;20052;-53
2023/06/05 04:04:12;;;;;;;4.38;2.47;;;14.50;50.00;;;16.38;40.08;97693.22;5064446;28;20412;-55
2023/06/05 04:06:40;;;;;;;2.80;2.20;;;14.60;49.90;;;16.40;40.08;97699.22;5063604;28;20407;-52
2023/06/05 04:09:13;;;;;;;3.30;2.53;;;14.60;49.80;;;16.43;39.78;97701.50;5059329;28;20050;-52
2023/06/05 04:11:44;;;;;;;4.38;2.47;;;14.70;49.40;;;16.46;40.08;97702.94;5057168;28;20049;-53
2023/06/05 04:14:12;;;;;;;3.85;2.45;;;14.60;49.30;;;16.47;39.74;97694.69;5062719;28;20055;-51
2023/06/05 04:16:42;;;;;;;2.70;1.95;;;14.70;48.90;;;16.50;39.78;97704.25;5062050;28;20424;-53
2023/06/05 04:19:15;;;;;;;3.72;2.10;;;14.70;49.00;;;16.52;39.75;97707.56;5040617;28;20524;-53
2023/06/05 04:21:45;;;;;;;3.63;2.50;;;14.70;49.10;;;16.52;39.81;97707.56;5054941;28;20049;-52
2023/06/05 04:24:12;;;;;;;3.10;2.47;;;14.70;49.10;;;16.54;39.63;97714.38;5062538;28;20044;-55
2023/06/05 04:26:43;;;;;;;3.92;1.92;;;14.70;48.90;;;16.54;39.51;97711.69;5062153;28;20059;-54
2023/06/05 04:29:15;;;;;;;3.15;2.40;;;14.70;48.90;;;16.55;39.62;97709.81;5060673;28;20044;-52
2023/06/05 04:31:47;;;;;;;2.45;2.10;;;14.80;48.80;;;16.60;39.46;97710.06;5058989;28;20070;-54
2023/06/05 04:34:17;;;;;;;4.35;3.33;;;14.90;48.70;;;16.64;39.54;97715.88;5062185;28;20438;-51
2023/06/05 04:36:49;;;;;;;3.90;2.47;;;14.90;48.50;;;16.66;39.37;97711.16;5061300;28;20420;-55
2023/06/05 04:39:18;;;;;;;3.58;2.00;;;14.90;48.10;;;16.68;39.20;97709.91;5059690;28;20408;-53
2023/06/05 04:41:46;;;;;;;3.55;2.60;;;15.00;48.00;;;16.70;39.34;97713.22;5059340;28;20049;-51
2023/06/05 04:44:31;;;;;;;3.83;2.65;;;15.00;47.90;;;16.74;39.24;97710.97;5062346;28;20124;-55
2023/06/05 04:47:00;;;;;;;3.55;2.60;;;15.10;47.80;;;16.73;39.31;97712.03;5059080;28;20052;-53
2023/06/05 04:49:28;;;;;;;3.78;2.10;;;15.10;47.30;;;16.70;39.28;97717.78;5058581;28;20389;-54
2023/06/05 04:51:56;;;;;;;3.95;2.20;;;15.20;46.90;;;16.70;39.21;97713.22;5060100;28;20078;-54
2023/06/05 04:54:24;;;;;;;4.80;2.42;;;15.30;47.00;;;16.77;39.08;97717.81;5062124;28;20052;-55
2023/06/05 04:56:53;;;;;;;3.17;2.30;;;15.30;47.20;;;16.80;39.12;97714.72;5059858;28;20055;-54
2023/06/05 04:59:22;;;;;;;3.92;2.33;;;15.30;47.00;;;16.81;39.54;97717.22;5058700;28;20516;-53
2023/06/05 05:01:50;;;;;;;4.03;2.40;;;15.40;47.10;;;16.85;39.23;97709.63;5059146;28;20048;-53
2023/06/05 05:04:20;;;;;;;3.78;2.40;;;15.40;47.00;;;16.89;39.43;97718.94;5061543;28;20048;-52
2023/06/05 05:06:51;;;;;;;4.22;2.60;;;15.50;47.10;;;16.93;39.25;97718.34;5060508;28;20056;-54
2023/06/05 05:09:19;;;;;;;5.13;2.47;;;15.40;47.20;;;16.98;39.31;97714.22;5058531;28;20045;-53
2023/06/05 05:11:47;;;;;;;3.72;2.25;;;15.50;47.10;;;16.98;39.28;97716.91;5060137;28;20041;-54
2023/06/05 05:14:17;;;;;;;3.53;2.45;;;15.50;47.20;;;17.03;39.30;97722.53;5063294;28;20051;-52
2023/06/05 05:16:45;;;;;;;3.58;2.70;;;15.50;47.20;;;17.04;39.09;97710.72;5044642;28;20052;-55
2023/06/05 05:19:13;;;;;;;3.95;2.30;;;15.50;46.80;;;17.06;39.01;97724.78;5058042;28;20041;-54
2023/06/05 05:21:41;;;;;;;6.70;2.55;;;15.60;46.70;;;17.05;39.02;97728.53;5054062;28;20056;-55
2023/06/05 05:24:09;;;;;;;7.50;2.40;;;15.60;46.70;;;17.03;38.94;97728.72;5045001;28;20039;-51
2023/06/05 05:26:39;;;;;;;5.55;2.70;;;15.60;46.70;;;17.04;39.35;97730.41;5061202;28;20041;-55
2023/06/05 05:29:07;;;;;;;4.72;2.90;;;15.60;46.90;;;17.05;38.99;97729.34;5058810;28;20496;-55
2023/06/05 05:31:35;;;;;;;5.82;2.85;;;15.50;46.80;;;17.05;39.35;97728.53;5057485;28;20064;-54
2023/06/05 05:34:03;;;;;;;6.38;2.42;;;15.60;47.00;;;17.04;39.23;97725.03;5060348;28;20048;-55
2023/06/05 05:36:33;;;;;;;4.70;2.38;;;15.60;47.10;;;17.06;39.09;97725.66;5061102;28;20063;-51
2023/06/05 05:39:00;;;;;;;4.65;2.20;;;15.50;47.20;;;17.09;39.21;97722.53;5059094;28;20057;-54
2023/06/05 05:41:28;;;;;;;5.60;2.63;;;15.50;47.20;;;17.12;39.22;97722.16;5058051;28;20520;-54
2023/06/05 05:43:57;;;;;;;3.35;2.10;;;15.50;47.20;;;17.08;39.05;97728.13;5056912;28;20060;-53
2023/06/05 05:46:24;;;;;;;3.90;2.70;;;15.50;47.20;;;17.09;39.03;97727.09;5062235;28;20055;-54
2023/06/05 05:48:54;;;;;;;4.53;2.38;;;15.50;47.40;;;17.12;39.22;97727.53;5061664;28;20048;-54
2023/06/05 05:51:23;;;;;;;2.70;2.10;;;15.60;47.20;;;17.19;39.35;97721.34;5059200;28;20047;-55
2023/06/05 05:53:51;;;;;;;3.65;2.25;;;15.60;47.50;;;17.26;39.12;97724.88;5058172;28;20416;-55
2023/06/05 05:56:19;;;;;;;3.55;2.30;;;15.70;46.90;;;17.20;39.24;97737.28;5061905;28;20044;-51
2023/06/05 05:58:47;;;;;;;5.10;2.28;;;15.80;46.90;;;17.17;39.44;97734.16;5062222;28;20055;-55
2023/06/05 06:01:15;;;;;;;4.07;2.42;;;15.90;46.90;;;17.24;39.39;97730.47;5052583;28;20037;-57
2023/06/05 06:03:43;;;;;;;3.72;2.60;;;15.90;46.80;;;17.31;39.48;97728.63;5066551;28;20048;-56
2023/06/05 06:06:12;;;;;;;5.57;2.55;;;15.90;47.20;;;17.40;39.78;97731.97;5063381;28;20040;-56
2023/06/05 06:08:39;;;;;;;4.75;2.63;;;16.00;47.50;;;17.49;39.61;97724.53;5063112;28;20060;-57
2023/06/05 06:11:07;;;;;;;4.40;2.70;;;16.10;47.70;;;17.57;39.42;97729.72;5065421;28;20045;-55
2023/06/05 06:13:35;;;;;;;5.13;2.80;;;16.20;47.00;;;17.66;39.35;97727.66;5066374;28;20056;-54
2023/06/05 06:16:03;;;;;;;4.63;2.50;;;16.30;47.00;;;17.71;39.27;97728.72;5063775;28;20428;-56
2023/06/05 06:18:31;;;;;;;6.10;3.03;;;16.30;47.20;;;17.78;39.33;97726.03;5061422;28;20045;-52
2023/06/05 06:20:59;;;;;;;5.40;2.50;;;16.40;47.00;;;17.82;39.14;97729.16;5063889;28;20045;-54
2023/06/05 06:23:26;;;;;;;5.68;2.55;;;16.40;46.80;;;17.88;39.22;97728.38;5066618;28;20154;-56
2023/06/05 06:25:54;;;;;;;2.70;2.17;;;16.40;46.80;;;17.88;39.18;97729.19;5065019;28;20048;-56
2023/06/05 06:28:22;;;;;;;5.05;3.08;;;16.50;46.70;;;17.93;39.39;97728.56;5062377;28;20052;-51
2023/06/05 06:30:50;;;;;;;5.35;2.33;;;16.50;46.80;;;17.98;39.05;97725.25;5062653;28;20048;-56
2023/06/05 06:33:18;;;;;;;3.38;2.22;;;16.70;46.50;;;18.04;39.01;97738.72;5053352;28;20044;-53
2023/06/05 06:35:46;;;;;;;6.22;2.20;;;16.70;46.50;;;18.11;39.26;97727.97;5062134;28;20089;-55
2023/06/05 06:38:13;;;;;;;5.55;3.22;;;16.70;46.60;;;18.12;39.22;97728.78;5061884;28;20055;-55
2023/06/05 06:40:41;;;;;;;5.75;2.80;;;16.80;46.40;;;18.16;39.04;97730.84;5063657;28;20056;-55
2023/06/05 06:43:08;;;;;;;5.30;2.97;;;16.90;46.30;;;18.23;38.88;97731.69;5061662;28;20055;-53
2023/06/05 06:45:41;;;;;;;4.03;2.30;;;16.90;46.00;;;18.29;38.83;97736.22;5060752;28;20053;-50
2023/06/05 06:48:09;;;;;;;5.25;3.03;;;17.00;45.80;;;18.37;38.67;97737.88;5061448;28;20069;-56
2023/06/05 06:50:37;;;;;;;2.88;2.25;;;17.00;46.00;;;18.44;38.86;97737.91;5047522;28;20047;-49
2023/06/05 06:53:05;;;;;;;4.55;2.58;;;17.00;46.10;;;18.52;38.68;97739.53;5047109;28;20041;-55
2023/06/05 06:55:33;;;;;;;4.80;2.20;;;17.10;46.20;;;18.56;38.88;97733.50;5041094;28;20045;-55
2023/06/05 06:58:00;;;;;;;5.18;2.85;;;17.20;46.00;;;18.61;38.52;97731.03;5051310;28;20052;-54
2023/06/05 07:00:28;;;;;;;4.22;2.70;;;17.20;45.80;;;18.64;38.75;97738.69;5059451;28;20492;-52
2023/06/05 07:02:56;;;;;;;4.45;2.67;;;17.30;46.80;;;18.70;38.59;97737.81;5065225;28;20060;-54
2023/06/05 07:05:24;;;;;;;4.93;2.80;;;17.40;45.80;;;18.77;38.57;97743.22;5060028;28;20071;-53
2023/06/05 07:07:51;;;;;;;5.68;3.60;;;17.40;45.80;;;18.84;38.63;97737.84;5062192;28;20520;-55
2023/06/05 07:10:19;;;;;;;3.90;3.25;;;17.50;46.00;;;18.91;38.72;97737.81;5063611;28;20045;-58
2023/06/05 07:12:47;;;;;;;7.97;3.03;;;17.50;46.20;;;18.94;38.69;97732.00;5065185;28;20051;-57
2023/06/05 07:15:14;;;;;;;13.85;3.88;;;17.60;46.00;;;18.98;38.81;97739.47;5060371;28;20049;-57
2023/06/05 07:17:42;;;;;;;9.77;3.15;;;17.70;46.20;;;19.03;38.61;97739.63;5061965;28;20045;-56
2023/06/05 07:20:10;;;;;;;11.13;2.95;;;17.70;45.80;;;19.08;38.36;97739.00;5063596;28;20041;-58
2023/06/05 07:22:44;;;;;;;5.10;2.80;;;17.80;45.30;;;19.13;38.10;97739.19;5065311;28;20046;-58
2023/06/05 07:25:13;;;;;;;;;;;17.90;44.70;;;19.19;37.93;97746.44;5063245;28;20059;-57
2023/06/05 07:27:41;;;;;;;5.20;2.78;;;18.00;44.60;;;19.26;37.48;97735.63;5061866;28;20372;-59
2023/06/05 07:30:09;;;;;;;3.75;2.92;;;18.00;44.60;;;19.28;37.74;97736.22;5063162;28;20049;-59
2023/06/05 07:32:37;;;;;;;5.65;2.85;;;18.00;44.30;;;19.33;37.84;97739.13;5064593;28;20411;-59
2023/06/05 07:35:07;;;;;;;5.07;2.63;;;18.10;44.50;;;19.36;38.18;97735.97;5063768;28;20052;-59
2023/06/05 07:37:35;;;;;;;4.43;2.88;;;18.10;45.10;;;19.41;38.07;97727.25;5042734;28;20444;-57
2023/06/05 07:40:03;;;;;;;8.90;3.70;;;18.30;44.90;;;19.47;37.99;97731.78;5041971;28;20044;-56
2023/06/05 07:42:31;;;;;;;6.35;3.60;;;18.30;44.60;;;19.54;38.01;97723.63;5040465;28;20045;-57
2023/06/05 07:44:59;;;;;;;7.78;3.85;;;18.40;44.60;;;19.62;37.99;97726.09;5046746;28;20048;-58
2023/06/05 07:47:27;;;;;;;7.38;3.53;;;18.40;44.30;;;19.71;37.72;97732.03;5044296;28;20045;-58
2023/06/05 07:50:03;;;;;;;10.73;3.53;;;18.50;44.30;;;19.77;37.80;97725.81;5038308;28;20053;-57
2023/06/05 07:52:31;;;;;;;5.25;3.15;;;18.60;44.30;;;19.82;37.87;97731.38;5035760;28;20041;-58
2023/06/05 07:54:59;;;;;;;7.70;3.78;;;18.70;44.50;;;19.85;37.79;97730.94;5032295;28;20049;-58
2023/06/05 07:57:30;;;;;;;11.32;3.80;;;18.70;44.40;;;19.92;37.70;97730.91;5031452;28;20049;-57
2023/06/05 07:59:57;;;;;;;11.05;4.43;;;18.80;44.40;;;19.98;37.75;97724.63;5032909;28;20053;-48
2023/06/05 08:02:25;;;;;;;5.75;3.33;;;18.80;44.50;;;20.06;37.81;97722.47;5032527;28;20409;-58
2023/06/05 08:04:53;;;;;;;8.48;3.72;;;18.90;44.50;;;20.15;37.82;97724.91;5032163;28;20060;-58
2023/06/05 08:07:20;;;;;;;9.57;4.00;;;19.00;44.50;;;20.24;37.81;97726.28;5032205;28;20046;-59
2023/06/05 08:09:48;;;;;;;8.00;3.65;;;19.10;44.40;;;20.31;37.48;97729.75;5045678;28;20056;-59
2023/06/05 08:12:15;;;;;;;10.30;3.95;;;19.20;44.20;;;20.37;37.76;97728.03;5032977;28;20516;-58
2023/06/05 08:14:43;;;;;;;8.63;4.30;;;19.30;44.30;;;20.43;37.77;97728.00;5031364;28;20434;-58
2023/06/05 08:17:11;;;;;;;6.97;3.53;;;19.30;44.50;;;20.48;37.99;97724.59;5031605;28;20056;-59
2023/06/05 08:19:39;;;;;;;9.88;4.03;;;19.40;44.70;;;20.53;38.32;97723.94;5032469;28;20052;-58
2023/06/05 08:22:06;;;;;;;13.93;3.85;;;19.40;45.00;;;20.59;38.14;97725.75;5031487;28;20049;-59
2023/06/05 08:24:34;;;;;;;10.90;4.32;;;19.50;45.20;;;20.64;38.02;97725.94;5031863;28;20064;-58
2023/06/05 08:27:02;;;;;;;8.55;4.20;;;19.60;44.90;;;20.70;38.52;97718.81;5031805;28;20046;-59
2023/06/05 08:29:30;;;;;;;10.73;3.83;;;19.60;45.60;;;20.77;38.12;97725.78;5031981;28;20042;-59
2023/06/05 08:31:58;;;;;;;9.55;4.10;;;19.70;45.10;;;20.85;38.41;97725.50;5032138;28;20045;-59
2023/06/05 08:34:26;;;;;;;5.60;4.00;;;19.80;45.20;;;20.93;38.58;97723.53;5031924;28;20086;-58
2023/06/05 08:36:58;;;;;;;8.90;4.57;;;19.80;45.20;;;21.00;38.29;97724.31;5031322;28;20080;-59
2023/06/05 08:39:29;;;;;;;12.93;4.38;;;19.90;45.50;;;21.10;38.37;97712.94;5031810;28;20056;-59
2023/06/05 08:41:59;;;;;;;9.48;4.25;;;20.00;45.20;;;21.18;38.28;97726.16;5044625;28;20549;-49
2023/06/05 08:44:28;;;;;;;8.45;3.92;;;20.10;45.20;;;21.23;39.00;97712.78;5032786;28;20493;-49
2023/06/05 08:47:03;;;;;;;7.70;3.85;;;20.10;46.30;;;21.24;38.97;97726.06;5031624;28;20052;-48
2023/06/05 08:49:36;;;;;;;7.38;4.15;;;20.20;48.40;;;21.30;38.16;97731.63;5035549;28;20064;-48
2023/06/05 08:52:07;;;;;;;6.32;3.88;;;20.20;45.30;;;21.37;38.53;97721.56;5044175;28;20052;-47
2023/06/05 08:54:39;;;;;;;7.25;3.95;;;20.30;46.00;;;21.42;38.19;97721.69;5042058;28;20052;-48
2023/06/05 08:57:08;;;;;;;4.60;4.20;;;20.30;45.70;;;21.46;38.68;97720.22;5038882;28;20064;-48
2023/06/05 08:59:36;;;;;;;7.82;4.38;;;20.40;45.90;;;21.51;38.76;97719.53;5036784;28;20045;-50
2023/06/05 09:02:04;;;;;;;6.00;4.80;;;20.40;45.60;;;21.56;38.81;97716.97;5036078;28;20051;-49
2023/06/05 09:04:32;;;;;;;8.18;4.47;;;20.40;45.90;;;21.64;38.87;97719.34;5036988;28;20513;-49
2023/06/05 09:07:00;;;;;;;6.55;4.28;;;20.50;45.80;;;21.71;38.56;97714.63;5037859;28;20033;-50
2023/06/05 09:09:28;;;;;;;7.03;4.43;;;20.60;46.50;;;21.76;38.27;97711.25;5036195;28;20421;-48
2023/06/05 09:12:07;;;;;;;9.95;4.75;;;20.60;45.60;;;21.80;39.17;97707.81;5035933;28;20056;-49
2023/06/05 09:14:35;;;;;;;8.50;4.35;;;20.70;47.30;;;21.84;39.15;97708.19;5039919;28;20045;-51
2023/06/05 09:17:03;;;;;;;8.68;4.50;;;20.70;46.50;;;21.90;38.95;97707.25;5039055;28;20045;-51
2023/06/05 09:19:46;;;;;;;8.70;4.45;;;20.80;46.90;;;21.96;38.68;97706.31;5039638;28;20049;-53
2023/06/05 09:22:31;;;;;;;6.03;4.87;;;20.90;46.40;;;22.06;39.00;97708.47;5038462;28;20048;-53
2023/06/05 09:25:01;;;;;;;7.72;4.65;;;21.00;46.50;;;22.17;38.92;97701.41;5034951;28;20287;-53
2023/06/05 09:27:28;;;;;;;11.90;5.47;;;21.10;46.20;;;22.28;39.04;97699.81;5058254;28;20048;-50
2023/06/05 09:30:04;;;;;;;7.15;5.13;;;21.20;46.30;;;22.43;39.30;97702.88;5062572;28;20040;-51
2023/06/05 09:32:32;;;;;;;7.00;4.78;;;21.30;46.80;;;22.54;38.78;97704.75;5059026;28;20048;-49
2023/06/05 09:35:01;;;;;;;5.72;4.43;;;21.50;46.40;;;22.62;38.96;97700.84;5058885;28;20420;-49
2023/06/05 09:37:36;;;;;;;7.72;4.13;;;21.60;46.20;;;22.67;38.53;97697.44;5060676;28;20048;-48
2023/06/05 09:40:06;;;;;;;5.72;3.97;;;21.70;46.20;;;22.72;38.49;97701.09;5058790;28;20049;-48
2023/06/05 09:42:35;;;;;;;6.05;3.97;;;21.60;45.80;;;22.81;38.49;97707.78;5059896;28;20075;-48
2023/06/05 09:45:04;;;;;;;5.63;4.95;;;21.70;46.00;;;22.86;38.70;97704.38;5058495;28;20416;-53
2023/06/05 09:47:32;;;;;;;6.20;4.95;;;21.80;45.70;;;22.91;38.28;97703.66;5060234;28;20438;-49
2023/06/05 09:50:27;;;;;;;6.65;4.78;;;21.80;45.60;;;22.99;38.15;97695.13;5062091;28;20044;-49
2023/06/05 09:52:56;;;;;;;6.82;4.32;;;21.90;45.50;;;23.06;38.90;97692.31;5059338;28;20052;-51
2023/06/05 09:55:25;;;;;;;9.68;4.85;;;22.00;46.00;;;23.14;38.17;97694.66;5058846;28;20052;-50
2023/06/05 09:57:56;;;;;;;7.90;4.43;;;22.10;45.60;;;23.19;38.39;97697.47;5062779;28;20049;-52
2023/06/05 10:00:24;;;;;;;7.72;5.10;;;22.10;45.50;;;23.23;37.80;97693.22;5060741;28;20044;-50
2023/06/05 10:02:55;;;;;;;5.00;4.47;;;22.10;45.00;;;23.26;38.10;97689.19;5041178;28;20056;-50
2023/06/05 10:05:23;;;;;;;5.90;4.13;;;22.10;45.00;;;23.32;37.85;97685.50;5059543;28;20049;-54
2023/06/05 10:07:53;;;;;;;6.53;4.90;;;22.20;45.10;;;23.39;37.25;97683.47;5061366;28;20044;-53
2023/06/05 10:10:21;;;;;;;7.15;4.93;;;22.30;44.20;;;23.45;37.45;97687.91;5060293;28;20048;-50
2023/06/05 10:12:49;;;;;;;5.45;4.60;;;22.40;44.20;;;23.52;36.96;97687.78;5057998;28;20424;-51
2023/06/05 10:15:17;;;;;;;10.35;4.57;;;22.50;43.30;;;23.57;36.74;97677.84;5058858;28;20056;-48
2023/06/05 10:17:48;;;;;;;5.45;4.95;;;22.50;43.50;;;23.65;36.79;97684.78;5050158;28;20052;-49
2023/06/05 10:20:16;;;;;;;9.23;4.78;;;22.60;43.20;;;23.68;36.63;97676.09;5059240;28;20051;-50
2023/06/05 10:22:48;;;;;;;5.65;4.47;;;22.60;43.10;;;23.77;36.72;97684.69;5050153;28;20531;-50
2023/06/05 10:25:20;;;;;;;6.28;5.10;;;22.70;43.10;;;23.83;36.19;97680.22;5057437;28;20076;-50
2023/06/05 10:28:24;;;;;;;6.53;4.15;;;22.80;42.60;;;23.87;36.34;97675.94;5037943;28;20510;-52
2023/06/05 10:31:18;;;;;;;5.15;4.00;;;22.80;42.20;;;23.92;36.14;97678.72;5051875;28;20052;-50